Time;durP1;ratioP1;P1;durP2;ratioP2;P2;SDS_P1;SDS_P2;PMS_P1;PMS_P2;Temp;Humidity;BMP_temperature;BMP_pressure;BME280_temperature;BME280_humidity;BME280_pressure;Samples;Min_cycle;Max_cycle;Signal;HPM_P1;HPM_P2
2022/11/30 00:00:03;;;;;;;;;;;;;;;;;;6102396;23;19920;-95
2022/11/30 00:02:29;;;;;;;;;;;;;;;;;;6102471;23;20236;-95
2022/11/30 00:04:55;;;;;;;;;;;;;;;;;;6102465;23;19917;-96
2022/11/30 00:07:21;;;;;;;;;;;;;;;;;;6102221;23;19920;-95
2022/11/30 00:09:47;;;;;;;;;;;;;;;;;;6102113;23;19963;-96
2022/11/30 00:12:13;;;;;;;;;;;;;;;;;;6102072;23;19917;-96
2022/11/30 00:14:38;;;;;;;;;;;;;;;;;;6101984;23;19917;-95
2022/11/30 00:17:04;;;;;;;;;;;;;;;;;;6102231;23;20251;-96
2022/11/30 00:19:30;;;;;;;;;;;;;;;;;;6101881;23;19928;-96
2022/11/30 00:21:56;;;;;;;;;;;;;;;;;;6102513;23;19920;-96
2022/11/30 00:24:22;;;;;;;;;;;;;;;;;;6102316;23;20232;-96
2022/11/30 00:26:48;;;;;;;;;;;;;;;;;;6102277;23;19913;-96
2022/11/30 00:29:14;;;;;;;;;;;;;;;;;;6102073;23;20059;-96
2022/11/30 00:31:40;;;;;;;;;;;;;;;;;;6102022;23;20043;-95
2022/11/30 00:34:06;;;;;;;;;;;;;;;;;;6102124;23;19913;-96
2022/11/30 00:36:32;;;;;;;;;;;;;;;;;;6101975;23;19921;-95
2022/11/30 00:38:58;;;;;;;;;;;;;;;;;;6101795;23;19920;-96
2022/11/30 00:41:24;;;;;;;;;;;;;;;;;;6101968;23;20350;-96
2022/11/30 00:43:50;;;;;;;;;;;;;;;;;;6101876;23;20319;-95
2022/11/30 00:46:16;;;;;;;;;;;;;;;;;;6101804;23;20259;-95
2022/11/30 00:48:42;;;;;;;;;;;;;;;;;;6126193;23;20331;-94
2022/11/30 00:51:07;;;;;;;;;;;;;;;;;;6101561;23;19948;-95
2022/11/30 00:53:33;;;;;;;;;;;;;;;;;;6101662;23;19912;-96
2022/11/30 00:55:59;;;;;;;;;;;;;;;;;;6106660;23;19916;-94
2022/11/30 00:58:25;;;;;;;;;;;;;;;;;;6106637;23;20306;-96
2022/11/30 01:00:51;;;;;;;;;;;;;;;;;;6106677;23;20106;-96
2022/11/30 01:03:17;;;;;;;;;;;;;;;;;;6106737;23;19913;-96
2022/11/30 01:05:43;;;;;;;;;;;;;;;;;;6106522;23;19912;-96
2022/11/30 01:08:09;;;;;;;;;;;;;;;;;;6106627;23;20394;-96
2022/11/30 01:10:35;;;;;;;;;;;;;;;;;;6106342;23;20326;-96
2022/11/30 01:13:01;;;;;;;;;;;;;;;;;;6106553;23;19920;-94
2022/11/30 01:15:27;;;;;;;;;;;;;;;;;;6106731;23;19973;-95
2022/11/30 01:17:52;;;;;;;;;;;;;;;;;;6106433;23;20235;-96
2022/11/30 01:20:18;;;;;;;;;;;;;;;;;;6106092;23;19913;-95
2022/11/30 01:22:44;;;;;;;;;;;;;;;;;;6106184;23;19913;-95
2022/11/30 01:25:10;;;;;;;;;;;;;;;;;;6106434;23;19919;-95
2022/11/30 01:27:36;;;;;;;;;;;;;;;;;;6106350;23;19913;-95
2022/11/30 01:30:02;;;;;;;;;;;;;;;;;;6105989;23;19927;-96
2022/11/30 01:32:28;;;;;;;;;;;;;;;;;;6106829;23;19912;-96
2022/11/30 01:34:54;;;;;;;;;;;;;;;;;;6106267;23;20224;-96
2022/11/30 01:37:20;;;;;;;;;;;;;;;;;;6106393;23;19912;-96
2022/11/30 01:39:46;;;;;;;;;;;;;;;;;;6106000;23;19935;-96
2022/11/30 01:42:12;;;;;;;;;;;;;;;;;;6106064;23;19913;-96
2022/11/30 01:44:38;;;;;;;;;;;;;;;;;;6106103;23;19912;-95
2022/11/30 01:47:04;;;;;;;;;;;;;;;;;;6106276;23;20327;-96
2022/11/30 01:49:30;;;;;;;;;;;;;;;;;;6105836;23;19920;-96
2022/11/30 01:51:55;;;;;;;;;;;;;;;;;;6106294;23;19979;-96
2022/11/30 01:54:22;;;;;;;;;;;;;;;;;;6101049;23;19920;-96
2022/11/30 01:56:47;;;;;;;;;;;;;;;;;;6101427;23;19912;-96
2022/11/30 01:59:13;;;;;;;;;;;;;;;;;;6100901;23;20350;-96
2022/11/30 02:01:39;;;;;;;;;;;;;;;;;;6101271;23;19913;-96
2022/11/30 02:04:05;;;;;;;;;;;;;;;;;;6101023;23;19913;-96
2022/11/30 02:06:31;;;;;;;;;;;;;;;;;;6101190;23;20361;-95
2022/11/30 02:08:57;;;;;;;;;;;;;;;;;;6100783;23;19912;-95
2022/11/30 02:11:23;;;;;;;;;;;;;;;;;;6125566;23;20295;-96
2022/11/30 02:13:49;;;;;;;;;;;;;;;;;;6101404;23;19940;-96
2022/11/30 02:16:15;;;;;;;;;;;;;;;;;;6100905;23;19963;-96
2022/11/30 02:18:41;;;;;;;;;;;;;;;;;;6101030;23;19985;-96
2022/11/30 02:21:06;;;;;;;;;;;;;;;;;;6100628;23;19919;-96
2022/11/30 02:23:32;;;;;;;;;;;;;;;;;;6100987;23;19917;-96
2022/11/30 02:25:58;;;;;;;;;;;;;;;;;;6100850;23;20305;-95
2022/11/30 02:28:24;;;;;;;;;;;;;;;;;;6100977;23;20019;-96
2022/11/30 02:30:50;;;;;;;;;;;;;;;;;;6101008;23;19912;-95
2022/11/30 02:33:16;;;;;;;;;;;;;;;;;;6100981;23;19963;-96
2022/11/30 02:35:42;;;;;;;;;;;;;;;;;;6100925;23;20016;-94
2022/11/30 02:38:08;;;;;;;;;;;;;;;;;;6100843;23;20014;-96
2022/11/30 02:40:34;;;;;;;;;;;;;;;;;;6100833;23;19948;-96
2022/11/30 02:43:00;;;;;;;;;;;;;;;;;;6100892;23;19962;-96
2022/11/30 02:45:25;;;;;;;;;;;;;;;;;;6101074;23;19913;-96
2022/11/30 02:47:51;;;;;;;;;;;;;;;;;;6101005;23;19912;-96
2022/11/30 02:50:17;;;;;;;;;;;;;;;;;;6100836;23;20330;-96
2022/11/30 02:52:43;;;;;;;;;;;;;;;;;;6101348;23;19917;-96
2022/11/30 02:55:09;;;;;;;;;;;;;;;;;;6105579;23;19995;-96
2022/11/30 02:57:35;;;;;;;;;;;;;;;;;;6105706;23;19919;-96
2022/11/30 03:00:01;;;;;;;;;;;;;;;;;;6105822;23;20004;-95
2022/11/30 03:02:27;;;;;;;;;;;;;;;;;;6130263;23;19919;-96
2022/11/30 03:04:53;;;;;;;;;;;;;;;;;;6130570;23;20257;-96
2022/11/30 03:07:19;;;;;;;;;;;;;;;;;;6105488;23;19912;-96
2022/11/30 03:09:44;;;;;;;;;;;;;;;;;;6105384;23;19920;-96
2022/11/30 03:12:10;;;;;;;;;;;;;;;;;;6105615;23;19912;-96
2022/11/30 03:14:36;;;;;;;;;;;;;;;;;;6105628;23;20298;-96
2022/11/30 03:17:02;;;;;;;;;;;;;;;;;;6105600;23;19951;-96
2022/11/30 03:19:28;;;;;;;;;;;;;;;;;;6105594;23;19947;-96
2022/11/30 03:21:54;;;;;;;;;;;;;;;;;;6105461;23;20258;-95
2022/11/30 03:24:20;;;;;;;;;;;;;;;;;;6105538;23;19919;-96
2022/11/30 03:26:46;;;;;;;;;;;;;;;;;;6105713;23;19916;-96
2022/11/30 03:29:12;;;;;;;;;;;;;;;;;;6105434;23;19913;-96
2022/11/30 03:31:38;;;;;;;;;;;;;;;;;;6106078;23;19913;-96
2022/11/30 03:34:04;;;;;;;;;;;;;;;;;;6107576;23;19912;-96
2022/11/30 03:36:30;;;;;;;;;;;;;;;;;;6107426;23;19926;-94
2022/11/30 03:38:56;;;;;;;;;;;;;;;;;;6107106;23;19983;-95
2022/11/30 03:41:21;;;;;;;;;;;;;;;;;;6107308;23;19919;-96
2022/11/30 03:43:47;;;;;;;;;;;;;;;;;;6107404;23;19912;-96
2022/11/30 03:46:13;;;;;;;;;;;;;;;;;;6107257;23;19919;-96
2022/11/30 03:48:42;;;;;;;;;;;;;;;;;;6107454;23;20250;-96
2022/11/30 03:51:08;;;;;;;;;;;;;;;;;;6107210;23;19916;-96
2022/11/30 03:53:34;;;;;;;;;;;;;;;;;;6107020;23;19913;-94
2022/11/30 03:56:00;;;;;;;;;;;;;;;;;;6107063;23;19916;-96
2022/11/30 03:58:26;;;;;;;;;;;;;;;;;;6107398;23;20350;-95
2022/11/30 04:00:52;;;;;;;;;;;;;;;;;;6106937;23;20261;-96
2022/11/30 04:03:18;;;;;;;;;;;;;;;;;;6107387;23;19912;-96
2022/11/30 04:05:44;;;;;;;;;;;;;;;;;;6107191;23;19912;-96
2022/11/30 04:08:10;;;;;;;;;;;;;;;;;;6107220;23;19920;-96
2022/11/30 04:10:36;;;;;;;;;;;;;;;;;;6106983;23;19983;-96
2022/11/30 04:13:01;;;;;;;;;;;;;;;;;;6107220;23;20306;-96
2022/11/30 04:15:27;;;;;;;;;;;;;;;;;;6107020;23;19951;-96
2022/11/30 04:17:53;;;;;;;;;;;;;;;;;;6106925;23;19912;-95
2022/11/30 04:20:19;;;;;;;;;;;;;;;;;;6107132;23;19951;-96
2022/11/30 04:22:45;;;;;;;;;;;;;;;;;;6106978;23;19917;-96
2022/11/30 04:25:11;;;;;;;;;;;;;;;;;;6107015;23;19919;-95
2022/11/30 04:27:37;;;;;;;;;;;;;;;;;;6106867;23;19975;-95
2022/11/30 04:30:03;;;;;;;;;;;;;;;;;;6106779;23;19984;-96
2022/11/30 04:32:29;;;;;;;;;;;;;;;;;;6106751;23;19917;-96
2022/11/30 04:34:55;;;;;;;;;;;;;;;;;;6106601;23;19916;-96
2022/11/30 04:37:20;;;;;;;;;;;;;;;;;;6106741;23;19912;-96
2022/11/30 04:39:46;;;;;;;;;;;;;;;;;;6106713;23;20283;-96
2022/11/30 04:42:12;;;;;;;;;;;;;;;;;;6106836;23;19916;-96
2022/11/30 04:44:39;;;;;;;;;;;;;;;;;;6106859;23;19919;-96
2022/11/30 04:47:04;;;;;;;;;;;;;;;;;;6106885;23;19913;-96
2022/11/30 04:49:30;;;;;;;;;;;;;;;;;;6106578;23;20341;-96
2022/11/30 04:51:56;;;;;;;;;;;;;;;;;;6107009;23;19948;-96
2022/11/30 04:54:22;;;;;;;;;;;;;;;;;;6101678;23;20228;-96
2022/11/30 04:56:48;;;;;;;;;;;;;;;;;;6101986;23;20027;-96
2022/11/30 04:59:14;;;;;;;;;;;;;;;;;;6101666;23;19945;-96
2022/11/30 05:01:40;;;;;;;;;;;;;;;;;;6101191;23;20354;-96
2022/11/30 05:04:06;;;;;;;;;;;;;;;;;;6101248;23;20374;-95
2022/11/30 05:06:32;;;;;;;;;;;;;;;;;;6101523;23;20255;-96
2022/11/30 05:08:58;;;;;;;;;;;;;;;;;;6101150;23;19975;-96
2022/11/30 05:11:24;;;;;;;;;;;;;;;;;;6101592;23;19991;-96
2022/11/30 05:13:49;;;;;;;;;;;;;;;;;;6101489;23;20354;-96
2022/11/30 05:16:15;;;;;;;;;;;;;;;;;;6101469;23;19924;-96
2022/11/30 05:18:41;;;;;;;;;;;;;;;;;;6101289;23;19920;-96
2022/11/30 05:21:07;;;;;;;;;;;;;;;;;;6101164;23;19913;-96
2022/11/30 05:23:33;;;;;;;;;;;;;;;;;;6101531;23;20236;-96
2022/11/30 05:25:59;;;;;;;;;;;;;;;;;;6101437;23;19913;-95
2022/11/30 05:28:25;;;;;;;;;;;;;;;;;;6101318;23;20394;-96
2022/11/30 05:30:51;;;;;;;;;;;;;;;;;;6101114;23;19957;-96
2022/11/30 05:33:17;;;;;;;;;;;;;;;;;;6101663;23;19920;-95
2022/11/30 05:35:43;;;;;;;;;;;;;;;;;;6101444;23;20331;-96
2022/11/30 05:38:09;;;;;;;;;;;;;;;;;;6101441;23;19913;-96
2022/11/30 05:40:34;;;;;;;;;;;;;;;;;;6101142;23;19913;-96
2022/11/30 05:43:00;;;;;;;;;;;;;;;;;;6101197;23;19983;-96
2022/11/30 05:45:26;;;;;;;;;;;;;;;;;;6101395;23;19937;-96
2022/11/30 05:47:52;;;;;;;;;;;;;;;;;;6101348;23;20327;-96
2022/11/30 05:50:18;;;;;;;;;;;;;;;;;;6100925;23;19913;-96
2022/11/30 05:52:44;;;;;;;;;;;;;;;;;;6101264;23;19917;-96
2022/11/30 05:55:10;;;;;;;;;;;;;;;;;;6105495;23;20242;-96
2022/11/30 05:57:36;;;;;;;;;;;;;;;;;;6105900;23;20034;-96
2022/11/30 06:00:02;;;;;;;;;;;;;;;;;;6105687;23;19994;-96
2022/11/30 06:02:28;;;;;;;;;;;;;;;;;;6106081;23;19916;-95
2022/11/30 06:04:54;;;;;;;;;;;;;;;;;;6105694;23;19912;-96
2022/11/30 06:07:20;;;;;;;;;;;;;;;;;;6105875;23;20286;-96
2022/11/30 06:09:46;;;;;;;;;;;;;;;;;;6105643;23;19913;-95
2022/11/30 06:12:11;;;;;;;;;;;;;;;;;;6106126;23;19912;-96
2022/11/30 06:14:37;;;;;;;;;;;;;;;;;;6106634;23;20332;-96
2022/11/30 06:17:03;;;;;;;;;;;;;;;;;;6106995;23;19919;-95
2022/11/30 06:19:29;;;;;;;;;;;;;;;;;;6105864;23;20345;-96
2022/11/30 06:21:55;;;;;;;;;;;;;;;;;;6105868;23;20037;-96
2022/11/30 06:24:21;;;;;;;;;;;;;;;;;;6105800;23;20246;-96
2022/11/30 06:26:47;;;;;;;;;;;;;;;;;;6105961;23;19912;-96
2022/11/30 06:29:13;;;;;;;;;;;;;;;;;;6105591;23;19923;-96
2022/11/30 06:31:39;;;;;;;;;;;;;;;;;;6105630;23;20250;-95
2022/11/30 06:34:05;;;;;;;;;;;;;;;;;;6130504;23;20287;-96
2022/11/30 06:36:31;;;;;;;;;;;;;;;;;;6105704;23;19960;-96
2022/11/30 06:38:57;;;;;;;;;;;;;;;;;;6106019;23;19948;-96
2022/11/30 06:41:23;;;;;;;;;;;;;;;;;;6105861;23;19916;-95
2022/11/30 06:43:49;;;;;;;;;;;;;;;;;;6105816;23;19912;-95
2022/11/30 06:46:15;;;;;;;;;;;;;;;;;;6105771;23;20341;-95
2022/11/30 06:48:41;;;;;;;;;;;;;;;;;;6105657;23;19913;-96
2022/11/30 06:51:07;;;;;;;;;;;;;;;;;;6107050;23;19943;-96
2022/11/30 06:53:32;;;;;;;;;;;;;;;;;;6105746;23;19991;-96
2022/11/30 06:55:58;;;;;;;;;;;;;;;;;;6100568;23;19917;-96
2022/11/30 06:58:24;;;;;;;;;;;;;;;;;;6100727;23;19921;-96
2022/11/30 07:00:50;;;;;;;;;;;;;;;;;;6100486;23;19920;-96
2022/11/30 07:03:16;;;;;;;;;;;;;;;;;;6100701;23;20291;-96
2022/11/30 07:05:42;;;;;;;;;;;;;;;;;;6101062;23;19940;-96
2022/11/30 07:08:08;;;;;;;;;;;;;;;;;;6102872;23;19963;-96
2022/11/30 07:10:34;;;;;;;;;;;;;;;;;;6102436;23;19995;-96
2022/11/30 07:13:00;;;;;;;;;;;;;;;;;;6102699;23;19913;-96
2022/11/30 07:15:26;;;;;;;;;;;;;;;;;;6102529;23;19920;-96
2022/11/30 07:17:52;;;;;;;;;;;;;;;;;;6102561;23;20299;-96
2022/11/30 07:20:18;;;;;;;;;;;;;;;;;;6102067;23;19913;-96
2022/11/30 07:22:44;;;;;;;;;;;;;;;;;;6102561;23;19955;-95
2022/11/30 07:27:54;;;;;;;;;;;;;;;;;;6126989;23;20287;-96
2022/11/30 07:30:20;;;;;;;;;;;;;;;;;;6102231;23;19913;-96
2022/11/30 07:32:46;;;;;;;;;;;;;;;;;;6103107;23;20224;-95
2022/11/30 07:35:12;;;;;;;;;;;;;;;;;;6103394;23;19924;-93
2022/11/30 07:37:39;;;;;;;;;;;;;;;;;;6101439;23;19948;-95
2022/11/30 07:40:05;;;;;;;;;;;;;;;;;;6103020;23;19991;-96
2022/11/30 07:42:31;;;;;;;;;;;;;;;;;;6103571;23;19940;-94
2022/11/30 07:45:00;;;;;;;;;;;;;;;;;;6107240;23;19981;-96
2022/11/30 07:47:30;;;;;;;;;;;;;;;;;;6115988;23;20202;-96
2022/11/30 07:50:01;;;;;;;;;;;;;;;;;;6136142;23;19912;-96
2022/11/30 07:52:27;;;;;;;;;;;;;;;;;;6104111;23;20250;-93
2022/11/30 07:54:53;;;;;;;;;;;;;;;;;;6101580;23;20025;-91
2022/11/30 07:57:19;;;;;;;;;;;;;;;;;;6102141;23;19988;-95
2022/11/30 07:59:45;;;;;;;;;;;;;;;;;;6101886;23;19944;-93
2022/11/30 08:02:12;;;;;;;;;;;;;;;;;;6102578;23;19948;-93
2022/11/30 08:04:37;;;;;;;;;;;;;;;;;;6103567;23;19983;-96
2022/11/30 08:07:03;;;;;;;;;;;;;;;;;;6103424;23;20373;-92
2022/11/30 08:09:29;;;;;;;;;;;;;;;;;;6102518;23;19917;-92
2022/11/30 08:11:55;;;;;;;;;;;;;;;;;;6102906;23;19913;-92
2022/11/30 08:14:21;;;;;;;;;;;;;;;;;;6102890;23;19935;-93
2022/11/30 08:16:47;;;;;;;;;;;;;;;;;;6102379;23;19924;-91
2022/11/30 08:19:13;;;;;;;;;;;;;;;;;;6102082;23;19917;-90
2022/11/30 08:21:39;;;;;;;;;;;;;;;;;;6101764;23;19935;-92
2022/11/30 08:24:05;;;;;;;;;;;;;;;;;;6101716;23;19912;-92
2022/11/30 08:26:31;;;;;;;;;;;;;;;;;;6102009;23;19945;-91
2022/11/30 08:28:57;;;;;;;;;;;;;;;;;;6102454;23;19920;-92
2022/11/30 08:31:23;;;;;;;;;;;;;;;;;;6102580;23;19931;-92
2022/11/30 08:33:49;;;;;;;;;;;;;;;;;;6102520;23;19944;-91
2022/11/30 08:36:15;;;;;;;;;;;;;;;;;;6102582;23;20019;-93
2022/11/30 08:38:41;;;;;;;;;;;;;;;;;;6102411;23;19979;-92
2022/11/30 08:41:06;;;;;;;;;;;;;;;;;;6102454;23;19996;-93
2022/11/30 08:43:32;;;;;;;;;;;;;;;;;;6102426;23;19960;-92
2022/11/30 08:45:58;;;;;;;;;;;;;;;;;;6103007;23;19913;-92
2022/11/30 08:48:24;;;;;;;;;;;;;;;;;;6105086;23;19912;-96
2022/11/30 08:50:51;;;;;;;;;;;;;;;;;;6128095;23;19913;-94
2022/11/30 08:53:17;;;;;;;;;;;;;;;;;;6105202;23;19913;-96
2022/11/30 08:55:43;;;;;;;;;;;;;;;;;;6103724;23;20000;-95
2022/11/30 08:58:08;;;;;;;;;;;;;;;;;;6104028;23;19988;-95
2022/11/30 09:00:34;;;;;;;;;;;;;;;;;;6102858;23;20295;-96
2022/11/30 09:03:00;;;;;;;;;;;;;;;;;;6103238;23;19920;-96
2022/11/30 09:05:26;;;;;;;;;;;;;;;;;;6127152;23;20291;-95
2022/11/30 09:07:52;;;;;;;;;;;;;;;;;;6127210;23;20232;-95
2022/11/30 09:10:18;;;;;;;;;;;;;;;;;;6103083;23;19912;-94
2022/11/30 09:12:44;;;;;;;;;;;;;;;;;;6102469;23;19917;-94
2022/11/30 09:15:13;;;;;;;;;;;;;;;;;;6127382;23;19928;-95
2022/11/30 09:17:39;;;;;;;;;;;;;;;;;;6102195;23;19916;-95
2022/11/30 09:20:06;;;;;;;;;;;;;;;;;;6125697;23;20339;-94
2022/11/30 09:22:32;;;;;;;;;;;;;;;;;;6101357;23;19951;-94
2022/11/30 09:24:58;;;;;;;;;;;;;;;;;;6101457;23;19917;-95
2022/11/30 09:27:29;;;;;;;;;;;;;;;;;;6101630;23;20327;-93
2022/11/30 09:29:55;;;;;;;;;;;;;;;;;;6101483;23;19913;-91
2022/11/30 09:32:20;;;;;;;;;;;;;;;;;;6126067;23;19913;-91
2022/11/30 09:34:46;;;;;;;;;;;;;;;;;;6102416;23;19920;-95
2022/11/30 09:37:12;;;;;;;;;;;;;;;;;;6104617;23;19913;-95
2022/11/30 09:39:41;;;;;;;;;;;;;;;;;;6101453;23;19913;-95
2022/11/30 09:42:07;;;;;;;;;;;;;;;;;;6102427;23;19979;-94
2022/11/30 09:44:33;;;;;;;;;;;;;;;;;;6102193;23;19995;-94
2022/11/30 09:46:59;;;;;;;;;;;;;;;;;;6101933;23;19913;-94
2022/11/30 09:49:25;;;;;;;;;;;;;;;;;;6100722;23;20323;-95
2022/11/30 09:51:51;;;;;;;;;;;;;;;;;;6103021;23;20351;-95
2022/11/30 09:54:17;;;;;;;;;;;;;;;;;;6102530;23;19917;-94
2022/11/30 09:56:43;;;;;;;;;;;;;;;;;;6100874;23;19927;-93
2022/11/30 09:59:09;;;;;;;;;;;;;;;;;;6100421;23;19991;-93
2022/11/30 10:01:35;;;;;;;;;;;;;;;;;;6102100;23;19920;-93
2022/11/30 10:04:01;;;;;;;;;;;;;;;;;;6100852;23;19913;-94
2022/11/30 10:06:27;;;;;;;;;;;;;;;;;;6101423;23;19920;-92
2022/11/30 10:08:53;;;;;;;;;;;;;;;;;;6100521;23;20330;-91
2022/11/30 10:11:19;;;;;;;;;;;;;;;;;;6100474;23;20346;-91
2022/11/30 10:13:45;;;;;;;;;;;;;;;;;;6102509;23;19912;-93
2022/11/30 10:16:11;;;;;;;;;;;;;;;;;;6101222;23;19971;-94
2022/11/30 10:18:37;;;;;;;;;;;;;;;;;;6101696;23;20061;-90
2022/11/30 10:21:03;;;;;;;;;;;;;;;;;;6100829;23;19917;-89
2022/11/30 10:23:29;;;;;;;;;;;;;;;;;;6125587;23;19923;-89
2022/11/30 10:25:56;;;;;;;;;;;;;;;;;;6101683;23;20354;-93
2022/11/30 10:28:22;;;;;;;;;;;;;;;;;;6101823;23;19944;-94
2022/11/30 10:30:58;;;;;;;;;;;;;;;;;;6101126;23;19920;-94
2022/11/30 10:33:24;;;;;;;;;;;;;;;;;;6101784;23;19913;-94
2022/11/30 10:35:50;;;;;;;;;;;;;;;;;;6101240;23;19923;-90
2022/11/30 10:38:16;;;;;;;;;;;;;;;;;;6101045;23;19913;-90
2022/11/30 10:40:42;;;;;;;;;;;;;;;;;;6125111;23;19913;-90
2022/11/30 10:46:11;;;;;;;;;;;;;;;;;;6136461;23;19939;-90
2022/11/30 10:48:37;;;;;;;;;;;;;;;;;;6101032;23;20339;-90
2022/11/30 10:51:03;;;;;;;;;;;;;;;;;;6100717;23;19921;-90
2022/11/30 10:53:29;;;;;;;;;;;;;;;;;;6101020;23;19972;-90
2022/11/30 10:55:55;;;;;;;;;;;;;;;;;;6125474;23;20343;-92
2022/11/30 10:58:21;;;;;;;;;;;;;;;;;;6101312;23;19968;-90
2022/11/30 11:00:47;;;;;;;;;;;;;;;;;;6125288;23;19963;-95
2022/11/30 11:03:13;;;;;;;;;;;;;;;;;;6098738;23;19959;-96
2022/11/30 11:05:39;;;;;;;;;;;;;;;;;;6099771;23;19927;-94
2022/11/30 11:08:05;;;;;;;;;;;;;;;;;;6100245;23;20258;-95
2022/11/30 11:10:31;;;;;;;;;;;;;;;;;;6100419;23;19987;-95
2022/11/30 11:12:57;;;;;;;;;;;;;;;;;;6100189;23;19916;-95
2022/11/30 11:15:23;;;;;;;;;;;;;;;;;;6100263;23;19945;-96
2022/11/30 11:17:50;;;;;;;;;;;;;;;;;;6100289;23;19913;-95
2022/11/30 11:20:16;;;;;;;;;;;;;;;;;;6100252;23;19923;-95
2022/11/30 11:22:42;;;;;;;;;;;;;;;;;;6100255;23;20106;-95
2022/11/30 11:25:08;;;;;;;;;;;;;;;;;;6100520;23;19913;-95
2022/11/30 11:27:34;;;;;;;;;;;;;;;;;;6099996;23;20020;-95
2022/11/30 11:30:00;;;;;;;;;;;;;;;;;;6099734;23;19912;-96
2022/11/30 11:32:26;;;;;;;;;;;;;;;;;;6099030;23;19920;-95
2022/11/30 11:34:52;;;;;;;;;;;;;;;;;;6098598;23;20391;-95
2022/11/30 11:37:19;;;;;;;;;;;;;;;;;;6100301;23;19917;-94
2022/11/30 11:39:44;;;;;;;;;;;;;;;;;;6124659;23;20333;-93
2022/11/30 11:42:10;;;;;;;;;;;;;;;;;;6100331;23;19948;-96
2022/11/30 11:44:36;;;;;;;;;;;;;;;;;;6124906;23;19958;-95
2022/11/30 11:47:02;;;;;;;;;;;;;;;;;;6100402;23;19913;-95
2022/11/30 11:49:28;;;;;;;;;;;;;;;;;;6100116;23;19913;-95
2022/11/30 11:51:54;;;;;;;;;;;;;;;;;;6100470;23;19913;-95
2022/11/30 11:54:20;;;;;;;;;;;;;;;;;;6101792;23;19965;-95
2022/11/30 11:56:46;;;;;;;;;;;;;;;;;;6102380;23;20378;-95
2022/11/30 11:59:12;;;;;;;;;;;;;;;;;;6101740;23;19945;-95
2022/11/30 12:01:38;;;;;;;;;;;;;;;;;;6102259;23;19917;-95
2022/11/30 12:04:04;;;;;;;;;;;;;;;;;;6102594;23;19913;-95
2022/11/30 12:06:30;;;;;;;;;;;;;;;;;;6102338;23;20393;-95
2022/11/30 12:08:56;;;;;;;;;;;;;;;;;;6101905;23;20228;-94
2022/11/30 12:11:22;;;;;;;;;;;;;;;;;;6102988;23;19913;-92
2022/11/30 12:13:49;;;;;;;;;;;;;;;;;;6101638;23;19916;-95
2022/11/30 12:16:15;;;;;;;;;;;;;;;;;;6102434;23;19960;-95
2022/11/30 12:18:41;;;;;;;;;;;;;;;;;;6101855;23;19912;-94
2022/11/30 12:21:07;;;;;;;;;;;;;;;;;;6102976;23;19912;-95
2022/11/30 12:23:33;;;;;;;;;;;;;;;;;;6101765;23;19995;-96
2022/11/30 12:25:59;;;;;;;;;;;;;;;;;;6102065;23;19955;-94
2022/11/30 12:28:25;;;;;;;;;;;;;;;;;;6101817;23;20335;-93
2022/11/30 12:30:51;;;;;;;;;;;;;;;;;;6101728;23;19916;-96
2022/11/30 12:33:17;;;;;;;;;;;;;;;;;;6102078;23;19937;-94
2022/11/30 12:35:43;;;;;;;;;;;;;;;;;;6102947;23;19992;-93
2022/11/30 12:38:09;;;;;;;;;;;;;;;;;;6102300;23;19920;-96
2022/11/30 12:40:35;;;;;;;;;;;;;;;;;;6102187;23;19948;-95
2022/11/30 12:43:01;;;;;;;;;;;;;;;;;;6102342;23;19944;-94
2022/11/30 12:45:26;;;;;;;;;;;;;;;;;;6101539;23;19912;-93
2022/11/30 12:47:52;;;;;;;;;;;;;;;;;;6101323;23;19913;-95
2022/11/30 12:50:18;;;;;;;;;;;;;;;;;;6108274;23;19913;-95
2022/11/30 12:52:44;;;;;;;;;;;;;;;;;;6102824;23;20020;-94
2022/11/30 12:55:10;;;;;;;;;;;;;;;;;;6102231;23;20366;-93
2022/11/30 12:57:36;;;;;;;;;;;;;;;;;;6102209;23;19936;-90
2022/11/30 13:00:02;;;;;;;;;;;;;;;;;;6102071;23;19912;-94
2022/11/30 13:02:28;;;;;;;;;;;;;;;;;;6102433;23;19936;-92
2022/11/30 13:04:54;;;;;;;;;;;;;;;;;;6102213;23;19913;-92
2022/11/30 13:07:20;;;;;;;;;;;;;;;;;;6102378;23;19913;-93
2022/11/30 13:09:46;;;;;;;;;;;;;;;;;;6102049;23;19913;-91
2022/11/30 13:12:12;;;;;;;;;;;;;;;;;;6102166;23;19913;-92
2022/11/30 13:14:38;;;;;;;;;;;;;;;;;;6101873;23;19920;-92
2022/11/30 13:17:04;;;;;;;;;;;;;;;;;;6102052;23;19916;-92
2022/11/30 13:19:29;;;;;;;;;;;;;;;;;;6102165;23;20357;-93
2022/11/30 13:21:55;;;;;;;;;;;;;;;;;;6102182;23;20247;-90
2022/11/30 13:24:22;;;;;;;;;;;;;;;;;;6101910;23;20398;-93
2022/11/30 13:26:47;;;;;;;;;;;;;;;;;;6126329;23;19917;-93
2022/11/30 13:29:14;;;;;;;;;;;;;;;;;;6101049;23;20335;-93
2022/11/30 13:31:39;;;;;;;;;;;;;;;;;;6101913;23;20444;-91
2022/11/30 13:34:05;;;;;;;;;;;;;;;;;;6101847;23;19919;-92
2022/11/30 13:36:31;;;;;;;;;;;;;;;;;;6101540;23;19952;-92
2022/11/30 13:38:57;;;;;;;;;;;;;;;;;;6101888;23;19939;-90
2022/11/30 13:41:23;;;;;;;;;;;;;;;;;;6102255;23;19917;-91
2022/11/30 13:43:49;;;;;;;;;;;;;;;;;;6101879;23;20389;-92
2022/11/30 13:46:15;;;;;;;;;;;;;;;;;;6102477;23;19951;-95
2022/11/30 13:48:41;;;;;;;;;;;;;;;;;;6102684;23;19919;-96
2022/11/30 13:51:08;;;;;;;;;;;;;;;;;;6131762;23;19913;-95
2022/11/30 13:53:36;;;;;;;;;;;;;;;;;;6102709;23;19963;-96
2022/11/30 13:56:01;;;;;;;;;;;;;;;;;;6102728;23;20224;-96
2022/11/30 13:58:27;;;;;;;;;;;;;;;;;;6102547;23;19967;-95
2022/11/30 14:00:53;;;;;;;;;;;;;;;;;;6102941;23;19996;-95
2022/11/30 14:03:19;;;;;;;;;;;;;;;;;;6102573;23;19952;-93
2022/11/30 14:05:45;;;;;;;;;;;;;;;;;;6102138;23;19935;-94
2022/11/30 14:08:11;;;;;;;;;;;;;;;;;;6101895;23;19919;-94
2022/11/30 14:10:37;;;;;;;;;;;;;;;;;;6101737;23;19917;-94
2022/11/30 14:13:04;;;;;;;;;;;;;;;;;;6102414;23;19956;-94
2022/11/30 14:15:32;;;;;;;;;;;;;;;;;;6101859;23;19975;-95
2022/11/30 14:17:58;;;;;;;;;;;;;;;;;;6104126;23;19913;-94
2022/11/30 14:20:24;;;;;;;;;;;;;;;;;;6101613;23;19940;-92
2022/11/30 14:22:50;;;;;;;;;;;;;;;;;;6101181;23;19987;-94
2022/11/30 14:25:16;;;;;;;;;;;;;;;;;;6099978;23;19913;-91
2022/11/30 14:27:42;;;;;;;;;;;;;;;;;;6100685;23;19912;-94
2022/11/30 14:30:08;;;;;;;;;;;;;;;;;;6100373;23;19991;-94
2022/11/30 14:32:34;;;;;;;;;;;;;;;;;;6100915;23;19923;-92
2022/11/30 14:35:01;;;;;;;;;;;;;;;;;;6100559;23;19948;-95
2022/11/30 14:37:27;;;;;;;;;;;;;;;;;;6099303;23;19944;-95
2022/11/30 14:39:55;;;;;;;;;;;;;;;;;;6099959;23;19953;-92
2022/11/30 14:42:21;;;;;;;;;;;;;;;;;;6124736;23;19952;-95
2022/11/30 14:44:48;;;;;;;;;;;;;;;;;;6099180;23;19913;-90
2022/11/30 14:47:14;;;;;;;;;;;;;;;;;;6100349;23;19999;-95
2022/11/30 14:49:40;;;;;;;;;;;;;;;;;;6106422;23;19945;-96
2022/11/30 14:52:13;;;;;;;;;;;;;;;;;;6127776;23;19913;-93
2022/11/30 14:54:39;;;;;;;;;;;;;;;;;;6101369;23;19920;-94
2022/11/30 14:57:05;;;;;;;;;;;;;;;;;;6101833;23;19916;-95
2022/11/30 14:59:31;;;;;;;;;;;;;;;;;;6126413;23;19913;-96
2022/11/30 15:01:57;;;;;;;;;;;;;;;;;;6102936;23;19913;-92
2022/11/30 15:04:23;;;;;;;;;;;;;;;;;;6101505;23;19913;-92
2022/11/30 15:06:49;;;;;;;;;;;;;;;;;;6101262;23;19920;-94
2022/11/30 15:09:15;;;;;;;;;;;;;;;;;;6101713;23;20246;-94
2022/11/30 15:11:41;;;;;;;;;;;;;;;;;;6101947;23;19919;-95
2022/11/30 15:14:10;;;;;;;;;;;;;;;;;;6105345;23;19913;-94
2022/11/30 15:16:39;;;;;;;;;;;;;;;;;;6105756;23;19917;-94
2022/11/30 15:19:07;;;;;;;;;;;;;;;;;;6103101;23;19913;-95
2022/11/30 15:21:33;;;;;;;;;;;;;;;;;;6107450;23;19919;-96
2022/11/30 15:23:59;;;;;;;;;;;;;;;;;;6113021;23;19917;-96
2022/11/30 15:26:26;;;;;;;;;;;;;;;;;;6116291;23;19913;-96
2022/11/30 15:29:07;;;;;;;;;;;;;;;;;;6132740;23;19917;-96
2022/11/30 15:31:33;;;;;;;;;;;;;;;;;;6103675;23;19917;-95
2022/11/30 15:33:59;;;;;;;;;;;;;;;;;;6103438;23;19913;-94
2022/11/30 15:36:26;;;;;;;;;;;;;;;;;;6127848;23;19938;-94
2022/11/30 15:38:52;;;;;;;;;;;;;;;;;;6109568;23;19920;-94
2022/11/30 15:41:18;;;;;;;;;;;;;;;;;;6106982;23;20327;-92
2022/11/30 15:43:44;;;;;;;;;;;;;;;;;;6103204;23;19923;-94
2022/11/30 15:46:10;;;;;;;;;;;;;;;;;;6102549;23;19987;-94
2022/11/30 15:48:36;;;;;;;;;;;;;;;;;;6102379;23;20361;-94
2022/11/30 15:51:02;;;;;;;;;;;;;;;;;;6101963;23;20323;-95
2022/11/30 15:53:28;;;;;;;;;;;;;;;;;;6103732;23;19913;-93
2022/11/30 15:55:54;;;;;;;;;;;;;;;;;;6101970;23;19925;-93
2022/11/30 15:58:20;;;;;;;;;;;;;;;;;;6102305;23;19953;-94
2022/11/30 16:00:46;;;;;;;;;;;;;;;;;;6101816;23;19913;-94
2022/11/30 16:03:12;;;;;;;;;;;;;;;;;;6102237;23;19964;-94
2022/11/30 16:05:38;;;;;;;;;;;;;;;;;;6101967;23;19913;-94
2022/11/30 16:08:05;;;;;;;;;;;;;;;;;;6101994;23;19916;-94
2022/11/30 16:10:31;;;;;;;;;;;;;;;;;;6126052;23;19912;-91
2022/11/30 16:12:57;;;;;;;;;;;;;;;;;;6125838;23;19912;-91
2022/11/30 16:15:23;;;;;;;;;;;;;;;;;;6101160;23;20091;-93
2022/11/30 16:17:49;;;;;;;;;;;;;;;;;;6101640;23;20316;-92
2022/11/30 16:20:15;;;;;;;;;;;;;;;;;;6101152;23;19967;-92
2022/11/30 16:22:41;;;;;;;;;;;;;;;;;;6101535;23;20243;-92
2022/11/30 16:25:07;;;;;;;;;;;;;;;;;;6101582;23;19913;-92
2022/11/30 16:27:33;;;;;;;;;;;;;;;;;;6126201;23;20291;-93
2022/11/30 16:29:59;;;;;;;;;;;;;;;;;;6101872;23;19913;-95
2022/11/30 16:32:25;;;;;;;;;;;;;;;;;;6101928;23;19929;-92
2022/11/30 16:34:51;;;;;;;;;;;;;;;;;;6100841;23;19917;-93
2022/11/30 16:37:17;;;;;;;;;;;;;;;;;;6101560;23;19944;-93
2022/11/30 16:39:43;;;;;;;;;;;;;;;;;;6101049;23;20379;-93
2022/11/30 16:42:09;;;;;;;;;;;;;;;;;;6101637;23;19948;-93